Home Team Position History
You can show your support by sponsoring this page for $50.  
Your ad/message will appear in this space for one year.  
Thank you for your support!       Team History Index Baltimore Orioles
         
          Left Field
             
Pos St All- Other Left Field Fielding Statistics Pos St Batting Statistics as Left Fielder Win Shares Pos St
Year Rank Rank Name HOF MVP Star Rookie GG SS Team Stdg Bats Age Pos Games PO Assts Err DP F Pct. Year Rank Rank Name At Bats Hits 2B 3B HR Runs RBI BB IBB SO HP SH SF SB CS GDP BA OBA SA OPS RC B WS F WS T WS BWS/G FWS/G TWS/G Adj WSQ Year Rank Rank Name
1901 9 8 George Hogriever     MIL 8 R 32   49 118 3 14 1 .896   1901 9 8 George Hogriever 201 47 9 2 0 23 15 27 1 2 6 .234 .328 .299 .627 27   2.6 1.0 3.6 .053 .020 .073 2.91 1901 9 8 George Hogriever
1901 12 Bill H. Hallman   R   MIL 8 L 25 RF   49 77 7 9 1 .903   1901 12 Bill H. Hallman 194 48 10 2 1 25 17 14 1 5 4 .247 .301 .335 .636 23   1.7 0.6 2.3 .035 .012 .047 1.48 1901 12 Bill H. Hallman
         
1902 3 3 Jesse Burkett Vet     STL 2 L 33   137 300 17 26 5 .924   1902 3 3 Jesse Burkett 541 165 28 9 5 95 51 69 5 7 23 .305 .389 .418 .807 102   19.6 4.6 24.2 .143 .034 .177 26.30 1902 3 3 Jesse Burkett
         
1903 2 2 Jesse Burkett Vet     STL 6 L 34   132 230 10 15 4 .941   1903 2 2 Jesse Burkett 515 151 20 7 3 73 40 52 3 4 17 .293 .361 .377 .738 86   20.0 1.9 21.9 .152 .014 .166 24.02 1903 2 2 Jesse Burkett
         
1904 2 1 Jesse Burkett Vet     STL 6 L 35   147 266 24 18 4 .942   1904 2 1 Jesse Burkett 575 156 15 10 2 72 27 78 5 3 12 .271 .363 .343 .706 81   21.8 3.1 24.9 .148 .021 .169 26.89 1904 2 1 Jesse Burkett
         
1905 2 2 George Stone   R   STL 8 L 27   154 278 15 14 5 .954   1905 2 2 George Stone 635 189 25 13 7 78 52 44 5 10 27 .298 .348 .411 .759 103   24.4 2.8 27.2 .158 .018 .177 30.30 1905 2 2 George Stone
         
1906 1 1 George Stone     STL 5 L 28   154 295 10 10 3 .968   1906 1 1 George Stone 581 208 25 20 6 91 71 52 7 18 35 .358 .417 .501 .918 127   33.7 4.4 38.1 .219 .029 .247 53.34 1906 1 1 George Stone
         
1907 2 2 George Stone     STL 6 L 29   155 276 12 9 5 .970   1907 2 2 George Stone 596 191 13 11 4 77 59 59 6 11 23 .320 .387 .399 .786 99   24.6 2.8 27.4 .159 .018 .177 30.45 1907 2 2 George Stone
         
1908 3 3 George Stone     STL 4 L 30   148 274 11 16 3 .947   1908 3 3 George Stone 588 165 21 8 5 89 31 55 3 13 20 .281 .345 .369 .714 86   22.1 4.1 26.2 .149 .028 .177 27.81 1908 3 3 George Stone
         
1909 7 6 George Stone     STL 7 L 31   63 114 6 9 3 .930   1909 7 6 George Stone 241 69 4 3 1 26 12 19 1 12 6 .286 .341 .340 .681 31   8.2 0.6 8.8 .130 .010 .140 9.05 1909 7 6 George Stone
1909 12 Art Griggs   R   STL 7 R 25 1B   36 43 5 5 2 .906   1909 12 Art Griggs 132 37 6 2 0 14 16 9 1 4 4 .280 .331 .356 .687 17   4.6 0.4 5.0 .128 .011 .139 5.12 1909 12 Art Griggs
1909 17 John McAleese   R   STL 7 R 30 CF,RF   27 36 4 5 0 .889   1909 17 John McAleese 89 19 2 0 0 11 4 11 3 1 6 .213 .320 .236 .556 9   1.9 0.2 2.1 .070 .007 .078 1.61 1909 17 John McAleese
         
1910 3 3 George Stone     STL 8 L 32   139 210 19 7 2 .970   1910 3 3 George Stone 539 138 16 12 0 58 38 46 0 22 19 .256 .315 .330 .645 63   15.1 1.1 16.2 .109 .008 .117 16.25 1910 3 3 George Stone
         
1911 7 5 Willie Hogan   R   STL 8 R 26   115 259 26 22 3 .928   1911 7 5 Willie Hogan 418 108 16 8 2 50 58 41 2 18 17 .258 .328 .349 .677 57   7.3 2.2 9.5 .063 .019 .083 7.98 1911 7 5 Willie Hogan
         
1912 17 8 Willie Hogan     STL 7 R 27   91 208 13 7 5 .969   1912 17 8 Willie Hogan 331 71 9 2 1 29 33 31 1 12 16 .215 .284 .263 .547 27   0.6 2.0 2.6 .007 .022 .029 1.38 1912 17 8 Willie Hogan
1912 15 Pete Compton   R   STL 7 L 22 RF   50 97 6 8 1 .928   1912 15 Pete Compton 186 52 4 3 1 18 21 15 1 4 8 .280 .337 .349 .686 24   3.2 0.7 3.9 .064 .014 .078 3.41 1912 15 Pete Compton
         
1913 8 7 Johnny Johnston   R   STL 8 L 23   106 222 23 9 3 .965   1913 8 7 Johnny Johnston 380 85 14 4 2 37 27 42 51 4 19 11 .224 .308 .297 .605 39   4.1 2.3 6.4 .039 .022 .060 4.99 1913 8 7 Johnny Johnston
1913 12 Tilly Walker     STL 8 R 25   23 36 5 4 0 .911   1913 12 Tilly Walker 85 25 4 1 0 7 11 2 9 0 5 5 .294 .310 .365 .675 10   1.4 0.3 1.7 .061 .013 .074 1.47 1913 12 Tilly Walker
         
1914 1 1 Tilly Walker T12     STL 5 R 26   145 311 30 10 5 .972   1914 1 1 Tilly Walker 517 154 24 16 6 67 78 51 72 4 15 29 17 .298 .365 .441 .806 88   23.9 4.1 28.0 .165 .028 .193 35.43 1914 1 1 Tilly Walker
         
1915 3 3 Burt Shotton     STL 6 L 30   138 261 13 21 3 .929   1915 3 3 Burt Shotton 501 142 16 10 1 83 27 106 56 2 5 39 29 .283 .411 .361 .772 81   19.9 2.1 22.0 .144 .015 .159 24.65 1915 3 3 Burt Shotton
         
1916 3 3 Burt Shotton     STL 5 L 31   156 357 25 20 6 .950   1916 3 3 Burt Shotton 614 174 23 6 1 97 36 110 65 0 4 41 28 .283 .392 .345 .737 96   22.3 3.9 26.2 .143 .025 .168 28.86 1916 3 3 Burt Shotton
         
1917 8 8 Burt Shotton     STL 7 L 32   107 182 10 16 6 .923   1917 8 8 Burt Shotton 398 89 9 1 1 47 20 62 47 1 8 16 .224 .330 .259 .589 39   6.8 0.7 7.5 .064 .007 .070 5.30 1917 8 8 Burt Shotton
1917 9 Earl L. Smith   R   STL 7 B 26 CF   22 41 5 1 2 .979   1917 9 Earl L. Smith 86 24 3 3 0 13 4 6 9 0 3 2 .279 .326 .384 .710 11   2.7 0.3 3.0 .123 .014 .136 2.96 1917 9 Earl L. Smith
         
1918 13 8 Earl L. Smith     STL 5 B 27 CF   54 99 10 6 2 .948   1918 13 8 Earl L. Smith 191 51 7 3 0 19 21 9 11 1 13 9 .267 .303 .335 .638 19   2.8 1.4 4.2 .052 .026 .078 3.41 1918 13 8 Earl L. Smith
1918 9 Jack Tobin     STL 5 L 26 CF   43 71 8 3 2 .963   1918 9 Jack Tobin 169 47 7 2 0 21 13 17 9 2 6 5 .278 .351 .343 .694 20   3.9 1.0 4.9 .091 .023 .114 4.82 1918 9 Jack Tobin
1918 12 Tim Hendryx     STL 5 R 27 CF   28 41 2 1 1 .977   1918 12 Tim Hendryx 93 26 6 1 0 9 14 16 15 1 5 2 .280 .391 .366 .757 14   3.1 0.6 3.7 .111 .021 .132 3.92 1918 12 Tim Hendryx
         
1919 4 4 Jack Tobin     STL 5 L 27   123 247 16 13 15 .953   1919 4 4 Jack Tobin 486 159 22 7 6 54 57 36 24 2 20 8 .327 .376 .438 .814 75   15.7 2.7 18.4 .128 .022 .150 18.30 1919 4 4 Jack Tobin
         
Pos St All- Other Left Field Fielding Statistics Pos St Batting Statistics as Left Fielder Win Shares Pos St
Year Rank Rank Name HOF MVP Star Rookie GG SS Team Stdg Bats Age Pos Games PO Assts Err DP F Pct. Year Rank Rank Name At Bats Hits 2B 3B HR Runs RBI BB IBB SO HP SH SF SB CS GDP BA OBA SA OPS RC B WS F WS T WS BWS/G FWS/G TWS/G Adj WSQ Year Rank Rank Name
1920 6 5 Ken Williams     STL 4 L 30 CF   104 231 13 11 4 .957   1920 6 5 Ken Williams 393 121 26 10 8 68 54 31 20 3 20 14 6 .308 .363 .486 .849 65   9.4 2.8 12.2 .090 .027 .117 11.17 1920 6 5 Ken Williams
1920 12 Jack Tobin     STL 4 L 28 RF   34 68 4 3 0 .960   1920 12 Jack Tobin 137 47 8 2 1 22 14 9 5 0 4 5 3 .343 .384 .453 .837 22   3.3 0.9 4.2 .097 .026 .124 3.95 1920 12 Jack Tobin
         
1921 2 2 Ken Williams     STL 3 L 31   145 331 24 26 3 .932   1921 2 2 Ken Williams 547 190 31 7 24 115 117 74 42 4 21 20 17 .347 .429 .561 .990 124   23.6 3.6 27.2 .163 .025 .188 30.87 1921 2 2 Ken Williams
         
1922 1 1 Ken Williams     STL 2 L 32   137 319 14 11 3 .968   1922 1 1 Ken Williams 520 173 30 10 35 114 138 66 28 6 11 33 18 .333 .414 .631 1.045 119   22.0 4.2 26.2 .161 .031 .191 30.86 1922 1 1 Ken Williams
         
1923 2 2 Ken Williams T15     STL 5 L 33   145 333 23 12 5 .967   1923 2 2 Ken Williams 555 198 37 12 29 106 91 79 32 2 10 18 17 .357 .439 .623 1.062 129   25.2 3.6 28.8 .174 .025 .199 33.34 1923 2 2 Ken Williams
         
1924 4 3 Ken Williams T22     STL 4 L 34   108 257 13 9 2 .968   1924 4 3 Ken Williams 398 129 21 4 18 78 84 69 17 1 11 20 11 .324 .425 .533 .958 88   15.9 2.5 18.4 .147 .023 .170 20.39 1924 4 3 Ken Williams
1924 14 Joe Evans     STL 4 R 29   38 93 2 3 1 .969   1924 14 Joe Evans 162 41 2 2 0 23 15 19 9 0 8 3 3 .253 .331 .290 .621 17   0.9 0.8 1.7 .024 .021 .045 0.97 1924 14 Joe Evans
         
1925 3 3 Ken Williams     STL 3 L 35   102 242 11 12 4 .955   1925 3 3 Ken Williams 411 136 31 5 25 83 105 37 14 3 11 10 5 .331 .390 .613 1.003 96   17.6 2.2 19.8 .173 .022 .194 24.36 1925 3 3 Ken Williams
1925 13 Herschel Bennett   R   STL 3 L 28 RF   41 73 6 8 1 .908   1925 13 Herschel Bennett 165 46 6 3 1 25 21 10 9 1 4 2 6 .279 .324 .370 .694 20   1.4 0.6 2.0 .034 .015 .049 1.23 1925 13 Herschel Bennett
         
1926 6 6 Ken Williams     STL 7 L 36   91 186 12 11 2 .947   1926 6 6 Ken Williams 343 96 15 7 17 54 73 39 23 1 14 5 4 .280 .355 .513 .868 59   9.6 1.8 11.4 .105 .020 .125 11.10 1926 6 6 Ken Williams
1926 13 Herschel Bennett     STL 7 L 29   36 72 6 4 2 .951   1926 13 Herschel Bennett 159 42 10 1 1 23 18 16 15 1 4 1 1 .264 .335 .358 .693 20   2.3 0.7 3.0 .064 .019 .083 2.38 1926 13 Herschel Bennett
1926 11 Bing Miller     STL 7 R 31 RF   26 56 3 4 1 .937   1926 11 Bing Miller 96 32 7 1 1 16 14 6 3 2 5 2 2 .333 .385 .458 .843 16   2.4 0.5 2.9 .092 .019 .112 2.66 1926 11 Bing Miller
         
1927 5 4 Ken Williams     STL 7 L 37   110 248 15 10 4 .963   1927 5 4 Ken Williams 412 132 22 6 17 68 72 55 29 1 15 9 7 .320 .402 .527 .929 89   15.6 2.1 17.7 .142 .019 .161 19.23 1927 5 4 Ken Williams
1927 10 Bing Miller     STL 7 R 32 CF,RF   37 78 3 3 1 .964   1927 10 Bing Miller 143 47 9 2 1 24 22 9 8 3 6 2 2 .329 .381 .441 .822 25   3.8 0.6 4.4 .103 .016 .119 4.11 1927 10 Bing Miller
         
1928 1 1 Heinie Manush Vet 2     STL 3 L 26   154 355 6 3 2 .992   1928 1 1 Heinie Manush 638 241 47 20 13 104 108 39 14 0 20 17 5 .378 .414 .575 .989 149   31.2 3.9 35.1 .203 .025 .228 43.45 1928 1 1 Heinie Manush
         
1929 2 2 Heinie Manush Vet     STL 4 L 27   141 293 11 4 3 .987   1929 2 2 Heinie Manush 574 204 45 10 6 85 81 43 24 1 17 9 8 .355 .401 .500 .901 111   19.1 4.0 23.1 .135 .028 .164 25.81 1929 2 2 Heinie Manush
         
1930 2 2 Goose Goslin Vet     STL 6 L 29   101 237 13 7 0 .973   1930 2 2 Goose Goslin 396 129 25 7 30 81 100 48 35 1 9 14 9 .326 .400 .652 1.052 103   16.5 3.0 19.5 .163 .030 .193 23.27 1930 2 2 Goose Goslin
1930 3 Heinie Manush Vet     STL 6 L 28   48 96 5 1 0 .990   1930 3 Heinie Manush 198 65 16 4 2 26 29 5 7 0 6 3 1 .328 .345 .480 .825 34   5.5 1.4 6.9 .115 .029 .144 7.15 1930 3 Heinie Manush
         
1931 2 2 Goose Goslin Vet T20     STL 5 L 30   151 319 14 14 1 .960   1931 2 2 Goose Goslin 591 194 42 10 24 114 105 80 41 4 0 9 6 .328 .412 .555 .967 134   22.5 2.5 25.0 .149 .017 .166 27.17 1931 2 2 Goose Goslin
         
1932 4 4 Goose Goslin Vet 17     STL 6 L 31   148 327 16 18 5 .950   1932 4 4 Goose Goslin 564 169 28 9 17 87 103 91 35 2 1 12 9 .300 .399 .472 .871 108   16.3 2.3 18.6 .110 .016 .126 17.77 1932 4 4 Goose Goslin
         
1933 7 6 Carl Reynolds   STL 8 R 30   123 263 8 10 3 .964   1933 7 6 Carl Reynolds 467 134 26 14 8 80 70 48 25 2 11 5 4 .287 .356 .454 .810 81   8.3 1.9 10.2 .067 .015 .083 8.18 1933 7 6 Carl Reynolds
1933 13 Debs Garms   STL 8 L 25   28 48 3 3 1 .944   1933 13 Debs Garms 110 35 6 1 2 20 14 18 12 1 1 1 3 .318 .419 .445 .864 22   2.6 0.3 2.9 .093 .011 .104 2.60 1933 13 Debs Garms
       
1934 8 7 Ray Pepper R   STL 6 R 28 CF   101 200 11 9 3 .959   1934 8 7 Ray Pepper 410 122 17 4 5 52 73 21 49 1 3 1 3 .298 .333 .395 .728 53   5.2 2.3 7.5 .051 .023 .074 5.62 1934 8 7 Ray Pepper
1934 11 Debs Garms   STL 6 L 26   42 83 1 5 0 .944   1934 11 Debs Garms 174 51 11 3 0 19 23 20 14 2 4 0 0 .293 .372 .391 .763 26   3.2 0.7 3.9 .076 .017 .093 3.27 1934 11 Debs Garms
       
1935 2 3 Moose Solters T9   STL 7 R 29   116 288 16 4 1 .987   1935 2 3 Moose Solters 500 165 35 5 15 72 94 30 32 0 2 9 1 .330 .368 .510 .878 88   13.6 3.3 16.9 .117 .028 .146 18.26 1935 2 3 Moose Solters
1935 11 Ray Pepper   STL 7 R 29 RF   27 48 2 1 0 .980   1935 11 Ray Pepper 124 31 7 1 2 9 18 9 15 0 1 0 1 .250 .301 .371 .672 14   0.9 0.4 1.3 .033 .015 .048 0.82 1935 11 Ray Pepper
       
1936 7 7 Moose Solters   STL 7 R 30   145 337 15 16 5 .957   1936 7 7 Moose Solters 603 176 43 7 16 96 129 39 73 1 6 3 0 .292 .336 .466 .802 93   9.4 2.0 11.4 .065 .014 .079 9.34 1936 7 7 Moose Solters
       
1937 5 5 Joe Vosmik   STL 8 R 27   143 333 12 10 4 .972   1937 5 5 Joe Vosmik 594 193 47 9 4 81 93 49 38 1 11 2 3 .325 .377 .455 .832 91   10.4 1.7 12.1 .073 .012 .085 10.34 1937 5 5 Joe Vosmik
       
Pos St All- Other Left Field Fielding Statistics Pos St Batting Statistics as Left Fielder Win Shares Pos St
Year Rank Rank Name HOF MVP Star Rookie GG SS Team Stdg Bats Age Pos Games PO Assts Err DP F Pct. Year Rank Rank Name At Bats Hits 2B 3B HR Runs RBI BB IBB SO HP SH SF SB CS GDP BA OBA SA OPS RC B WS F WS T WS BWS/G FWS/G TWS/G Adj WSQ Year Rank Rank Name
1938 10 8 Buster Mills   STL 7 R 29   106 217 9 9 2 .962   1938 10 8 Buster Mills 437 125 23 4 3 62 43 40 43 3 8 7 8 .286 .350 .378 .728 55   4.2 1.0 5.2 .040 .009 .049 3.56 1938 10 8 Buster Mills
1938 18 Glenn McQuillen R   STL 7 R 23   30 66 0 2 0 .971   1938 18 Glenn McQuillen 116 33 4 0 0 14 13 4 12 0 2 0 1 .284 .308 .319 .627 10   0.3 0.3 0.6 .010 .010 .020 0.26 1938 18 Glenn McQuillen
1938 14 Mel Mazzera R   STL 7 L 24   25 37 4 1 1 .976   1938 14 Mel Mazzera 109 30 4 1 3 18 15 6 13 2 2 1 1 .275 .325 .413 .738 15   1.3 0.2 1.5 .052 .008 .060 1.13 1938 14 Mel Mazzera
       
1939 11 8 Joe Gallagher R   STL 8 R 25 RF   56 120 7 8 1 .941   1939 11 8 Joe Gallagher 222 63 14 2 8 34 33 14 35 1 5 0 1 6 .284 .329 .473 .802 33   3.6 0.6 4.2 .064 .011 .075 3.33 1939 11 8 Joe Gallagher
1939 14 Billy Jr. Sullivan   STL 8 L 28 RF   31 73 3 4 1 .950   1939 14 Billy Jr. Sullivan 126 36 6 2 2 20 19 13 7 2 2 1 1 4 .286 .362 .413 .775 19   1.9 0.4 2.3 .061 .013 .074 1.81 1939 14 Billy Jr. Sullivan
1939 16 Moose Solters   STL 8 R 33   22 51 1 4 0 .929   1939 16 Moose Solters 96 20 4 1 0 10 10 7 15 0 0 1 0 1 .208 .262 .271 .533 9   0.9 0.3 1.2 .041 .014 .055 0.81 1939 16 Moose Solters
       
1940 3 3 Rip Radcliff 9   STL 6 L 34 RF   116 235 7 7 2 .972   1940 3 3 Rip Radcliff 474 162 27 7 6 67 66 38 16 1 3 5 3 9 .342 .392 .466 .858 87   14.6 1.7 16.3 .126 .015 .141 15.84 1940 3 3 Rip Radcliff
1940 12 Chet Laabs   STL 6 R 28 CF   25 42 1 2 0 .956   1940 12 Chet Laabs 85 23 4 2 4 13 16 13 23 0 0 1 1 1 .271 .367 .506 .873 17   2.7 0.3 3.0 .108 .012 .120 2.69 1940 12 Chet Laabs
       
1941 3 3 Roy Cullenbine 10 a   STL T6 B 27 1B   108 228 11 9 3 .964   1941 3 3 Roy Cullenbine 381 121 22 7 7 62 75 92 33 2 4 5 3 3 .318 .453 .467 .920 84   15.8 1.5 17.3 .146 .014 .160 18.48 1941 3 3 Roy Cullenbine
1941 11 Chet Laabs   STL T6 R 29 RF   21 43 1 1 0 .978   1941 11 Chet Laabs 82 23 5 1 3 13 12 11 12 0 1 1 0 2 .280 .366 .476 .842 14   2.1 0.3 2.4 .100 .014 .114 2.16 1941 11 Chet Laabs
       
1942 10 8 Glenn McQuillen   STL 3 R 27   68 138 2 4 0 .972   1942 10 8 Glenn McQuillen 299 85 13 11 3 35 42 9 15 1 2 1 1 19 .284 .307 .431 .738 34   4.3 1.1 5.4 .063 .016 .079 3.60 1942 10 8 Glenn McQuillen
1942 9 Chet Laabs T19   STL 3 R 30 CF,RF   36 66 3 2 1 .972   1942 9 Chet Laabs 133 37 5 2 7 23 25 22 22 0 2 0 1 3 .278 .381 .504 .885 26   5.2 0.6 5.8 .144 .017 .161 5.50 1942 9 Chet Laabs
1942 12 Tony Criscola R   STL 3 L 26   37 42 0 2 0 .955   1942 12 Tony Criscola 112 33 6 1 1 12 9 6 9 0 1 1 1 0 .295 .331 .393 .724 16   2.6 0.2 2.8 .070 .005 .076 1.82 1942 12 Tony Criscola
1942 8 Roy Cullenbine   STL 3 B 28 3B   27 48 5 5 1 .914   1942 8 Roy Cullenbine 92 18 6 1 2 13 12 25 17 0 3 0 1 2 .196 .368 .348 .716 14   4.3 0.3 4.6 .159 .011 .170 4.45 1942 8 Roy Cullenbine
       
1943 6 6 Chet Laabs T23 A   STL 6 R 31 CF   125 265 13 8 3 .972   1943 6 6 Chet Laabs 468 117 22 6 14 67 69 59 85 3 6 4 6 10 .250 .338 .412 .750 65   12.1 1.8 13.9 .097 .014 .111 12.04 1943 6 6 Chet Laabs
1943 11 Milt Byrnes R   STL 6 L 26 CF,RF   23 48 3 0 0 1.000   1943 11 Milt Byrnes 86 24 6 1 1 12 10 11 10 0 2 0 1 2 .279 .361 .407 .768 13   2.5 0.3 2.8 .109 .013 .122 2.54 1943 11 Milt Byrnes
       
1944 3 3 Al Zarilla   STL 1 L 25   74 153 4 4 1 .975   1944 3 3 Al Zarilla 266 80 12 6 6 40 42 27 31 6 6 1 1 2 .301 .378 .459 .837 51   11.8 1.8 13.6 .159 .024 .184 16.09 1944 3 3 Al Zarilla
1944 7 Milt Byrnes   STL 1 L 27 CF,RF   41 79 2 2 0 .976   1944 7 Milt Byrnes 129 38 6 1 1 20 14 22 16 0 4 0 2 3 .295 .397 .380 .777 23   5.0 0.9 5.9 .122 .022 .144 6.18 1944 7 Milt Byrnes
1944 13 Chet Laabs   STL 1 R 32   38 73 2 0 1 1.000   1944 13 Chet Laabs 136 32 7 1 3 19 16 20 22 0 3 2 1 2 .235 .333 .368 .701 20   3.7 1.0 4.7 .097 .026 .124 4.56 1944 13 Chet Laabs
       
1945 17 8 Babe Martin R   STL 3 R 25   43 102 6 1 2 .991   1945 17 8 Babe Martin 145 29 4 2 2 10 13 9 19 0 5 0 1 4 .200 .247 .297 .544 9   - 1.8 1.8 .000 .042 .042 1.02 1945 17 8 Babe Martin
1945 19 Pete Gray R   STL 3 L 30 CF   35 77 2 4 0 .952   1945 19 Pete Gray 128 28 3 1 0 14 7 7 6 0 3 3 3 1 .219 .259 .258 .517 8   - 1.0 1.0 .000 .029 .029 0.47 1945 19 Pete Gray
1945 10 Milt Byrnes   STL 3 L 28 CF,RF   31 65 3 1 0 .986   1945 10 Milt Byrnes 101 25 7 1 2 12 13 18 19 0 4 0 1 1 .248 .361 .396 .757 16   2.8 1.0 3.8 .090 .032 .123 3.67 1945 10 Milt Byrnes
1945 13 Chet Laabs   STL 3 R 33   34 60 1 1 0 .984   1945 13 Chet Laabs 98 23 4 3 1 13 7 14 15 3 3 0 0 2 .235 .348 .367 .715 13   2.1 0.9 3.0 .062 .026 .088 2.46 1945 13 Chet Laabs
1945 14 Lou Finney   STL 3 L 34 1B   24 44 2 1 1 .979   1945 14 Lou Finney 85 24 3 2 1 10 9 8 2 0 2 0 0 4 .282 .344 .400 .744 11   1.8 0.7 2.5 .075 .029 .104 2.23 1945 14 Lou Finney
       
1946 3 3 Jeff Heath   STL 7 L 31   83 147 5 6 1 .962   1946 3 3 Jeff Heath 316 87 20 4 12 46 57 37 37 1 1 0 2 2 .275 .353 .478 .831 57   13.5 1.0 14.5 .163 .012 .175 16.28 1946 3 3 Jeff Heath
1946 10 Al Zarilla   STL 7 L 27 RF   46 91 5 3 2 .970   1946 10 Al Zarilla 150 39 6 4 2 19 17 11 15 0 2 1 2 3 .260 .311 .393 .704 18   2.7 0.6 3.3 .059 .013 .072 2.37 1946 10 Al Zarilla
1946 14 Glenn McQuillen   STL 7 R 31   44 69 7 2 0 .974   1946 14 Glenn McQuillen 149 36 3 3 1 22 11 17 16 0 4 0 2 5 .242 .319 .322 .641 14   1.4 0.6 2.0 .032 .014 .045 1.15 1946 14 Glenn McQuillen
       
1947 3 3 Jeff Heath T31   STL 8 L 32   140 297 7 4 4 .987   1947 3 3 Jeff Heath 491 123 20 7 27 81 85 88 87 1 2 2 1 14 .251 .366 .485 .851 84   16.1 2.1 18.2 .115 .015 .130 17.71 1947 3 3 Jeff Heath
1947 21 Al Zarilla   STL 8 L 28 CF,RF   23 39 1 1 0 .976   1947 21 Al Zarilla 75 17 3 1 1 7 7 8 9 1 2 1 1 1 .227 .310 .333 .643 7   0.6 0.3 0.9 .026 .013 .039 0.48 1947 21 Al Zarilla
1947 20 Ray Coleman R   STL 8 L 25 RF   21 39 1 1 1 .976   1947 20 Ray Coleman 77 20 2 2 0 8 7 6 7 0 0 0 1 3 .260 .313 .338 .651 7   0.6 0.3 0.9 .029 .014 .043 0.50 1947 20 Ray Coleman
       
1948 10 8 Whitey Platt   STL 6 R 27   114 230 5 13 2 .948   1948 10 8 Whitey Platt 454 123 22 10 7 57 82 39 51 2 4 1 4 14 .271 .331 .410 .741 56   5.8 1.2 7.0 .051 .011 .061 4.85 1948 10 8 Whitey Platt
1948 11 Al Zarilla 18 a   STL 6 L 29 CF,RF   26 51 1 2 0 .963   1948 11 Al Zarilla 95 31 7 1 2 14 13 9 9 1 3 2 1 1 .326 .390 .484 .874 17   2.7 0.3 3.0 .104 .012 .115 2.85 1948 11 Al Zarilla
1948 17 Don Lund R   STL 6 R 25 RF   21 33 1 0 0 1.000   1948 17 Don Lund 74 18 3 2 1 10 11 5 8 1 1 0 0 0 .243 .300 .378 .678 9   0.7 0.3 1.0 .033 .014 .048 0.61 1948 17 Don Lund
       
Pos St All- Other Left Field Fielding Statistics Pos St Batting Statistics as Left Fielder Win Shares Pos St
Year Rank Rank Name HOF MVP Star Rookie GG SS Team Stdg Bats Age Pos Games PO Assts Err DP F Pct. Year Rank Rank Name At Bats Hits 2B 3B HR Runs RBI BB IBB SO HP SH SF SB CS GDP BA OBA SA OPS RC B WS F WS T WS BWS/G FWS/G TWS/G Adj WSQ Year Rank Rank Name
1949 17 8 Whitey Platt   STL 7 R 28   59 135 3 2 0 .986   1949 17 8 Whitey Platt 236 61 8 2 3 28 28 23 26 0 1 0 1 8 .258 .324 .347 .671 26   2.0 0.8 2.8 .034 .014 .047 1.66 1949 17 8 Whitey Platt
1949 9 Roy Sievers T18 R-1   STL 7 R 22 CF   51 105 6 4 0 .965   1949 9 Roy Sievers 179 55 11 0 6 32 35 27 29 1 1 0 2 6 .307 .401 .469 .870 32   5.4 0.6 6.0 .106 .012 .118 5.60 1949 9 Roy Sievers
1949 14 Stan Spence   STL 7 L 34 CF   33 64 4 0 1 1.000   1949 14 Stan Spence 115 28 5 1 5 17 17 19 13 1 3 0 0 4 .243 .356 .435 .791 18   2.4 0.4 2.8 .073 .012 .085 2.22 1949 14 Stan Spence
       
1950 7 7 Dick Kokos   STL 7 L 22 RF   81 211 5 7 1 .969   1950 7 7 Dick Kokos 303 79 17 3 11 48 41 54 45 1 2 5 5 6 .261 .374 .446 .820 54   7.6 1.8 9.4 .094 .022 .116 9.12 1950 7 7 Dick Kokos
1950 11 Don Lenhardt R   STL 7 R 27 1B   39 78 1 2 1 .975   1950 11 Don Lenhardt 139 38 6 2 6 22 23 26 27 1 2 1 1 2 .273 .392 .475 .867 28   4.4 0.6 5.0 .113 .015 .128 5.10 1950 11 Don Lenhardt
1950 16 Ray Coleman   STL 7 L 28 CF,RF   27 61 2 1 0 .984   1950 16 Ray Coleman 106 29 7 2 2 15 15 9 10 1 1 2 1 4 .274 .336 .434 .770 15   1.6 0.5 2.1 .059 .019 .078 1.67 1950 16 Ray Coleman
       
1951 12 8 Ray Coleman   STL 8 L 29 CF,RF   47 91 4 3 0 .969   1951 12 8 Ray Coleman 168 47 8 3 3 20 27 12 15 0 1 1 2 5 .280 .328 .417 .745 22   3.0 0.9 3.9 .064 .019 .083 3.08 1951 12 8 Ray Coleman
1951 17 Jack Maguire R   STL 8 R 26   26 61 2 2 1 .969   1951 17 Jack Maguire 100 24 2 1 1 12 11 9 17 0 1 1 0 4 .240 .303 .310 .613 9   1.1 0.5 1.6 .042 .019 .062 1.09 1951 17 Jack Maguire
1951 16 Ken Wood   STL 8 R 26 RF   29 50 2 2 0 .963   1951 16 Ken Wood 95 22 5 0 4 11 13 8 14 0 2 0 1 3 .232 .291 .411 .702 12   1.3 0.4 1.7 .045 .014 .059 1.13 1951 16 Ken Wood
1951 7 Don Lenhardt   STL 8 R 28   27 54 0 1 0 .982   1951 7 Don Lenhardt 99 26 3 0 5 9 17 6 13 0 0 1 0 1 .263 .305 .444 .749 13   2.2 0.6 2.8 .081 .022 .104 2.47 1951 7 Don Lenhardt
       
1952 10 6 Jim Dyck R   STL 7 R 30 3B   39 89 2 2 0 .978   1952 10 6 Jim Dyck 127 34 7 1 5 19 20 16 22 1 1 0 1 1 .268 .354 .457 .811 20   3.8 0.7 4.5 .097 .018 .115 4.55 1952 10 6 Jim Dyck
1952 14 Jim Delsing   STL 7 L 26 CF   34 68 2 1 1 .986   1952 14 Jim Delsing 115 29 5 2 0 13 13 10 11 2 2 1 1 4 .252 .323 .330 .653 12   1.6 0.5 2.1 .047 .015 .062 1.55 1952 14 Jim Delsing
1952 13 Bob Nieman R   STL 7 R 25 RF   32 58 2 2 1 .968   1952 13 Bob Nieman 121 35 6 1 5 17 19 12 19 0 2 0 1 4 .289 .353 .479 .832 18   3.3 0.5 3.8 .103 .016 .119 3.89 1952 13 Bob Nieman
1952 16 Al Zarilla   STL 7 L 33 RF   21 38 3 1 0 .976   1952 16 Al Zarilla 70 17 3 0 1 11 5 15 8 1 0 1 1 1 .243 .384 .329 .713 9   1.3 0.3 1.6 .062 .014 .076 1.30 1952 16 Al Zarilla
       
1953 8 7 Don Lenhardt   STL 8 R 30   72 138 7 5 1 .967   1953 8 7 Don Lenhardt 263 83 13 0 9 32 30 36 36 1 2 1 2 7 .316 .400 .468 .868 45   6.8 1.2 8.0 .094 .017 .111 7.83 1953 8 7 Don Lenhardt
1953 11 Dick Kokos   STL 8 L 25 RF   61 112 4 4 1 .967   1953 11 Dick Kokos 220 53 9 0 10 30 28 41 39 0 1 0 4 3 .241 .360 .418 .778 31   3.9 0.9 4.8 .064 .015 .079 3.95 1953 11 Dick Kokos
1953 20 Jim Dyck   STL 8 R 31 3B   32 49 3 1 1 .981   1953 20 Jim Dyck 97 21 4 0 3 11 8 11 12 1 2 1 1 4 .216 .303 .351 .654 9   0.3 0.4 0.7 .009 .013 .022 0.30 1953 20 Jim Dyck
       
1954 13 8 Jim Fridley   BAL 7 R 29   64 128 1 2 0 .985   1954 13 8 Jim Fridley 216 52 8 5 4 21 32 17 1 32 2 2 1 0 4 13 .241 .301 .380 .681 20   1.8 1.1 2.9 .028 .017 .045 1.75 1954 13 8 Jim Fridley
1954 14 Sam Mele   BAL 7 R 31 1B,RF   40 60 3 3 0 .955   1954 14 Sam Mele 137 30 4 2 4 10 18 8 2 13 0 3 3 0 0 6 .219 .257 .365 .622 12   1.6 0.6 2.2 .040 .015 .055 1.41 1954 14 Sam Mele
1954 11 Gil Coan   BAL 7 L 32 CF   36 73 1 2 0 .974   1954 11 Gil Coan 135 48 9 1 1 18 11 5 1 4 0 0 1 5 3 1 .356 .376 .459 .835 23   3.5 0.6 4.1 .097 .017 .114 3.93 1954 11 Gil Coan
       
1955 12 8 Jim Dyck   BAL 7 R 33   45 86 4 1 1 .989   1955 12 8 Jim Dyck 138 37 12 1 2 22 12 23 1 13 0 1 0 1 0 4 .268 .373 .413 .786 22   4.4 0.6 5.0 .098 .013 .111 4.96 1955 12 8 Jim Dyck
1955 10 Dave Philley T20   BAL 7 B 35 RF   46 79 3 3 0 .965   1955 10 Dave Philley 129 46 6 1 4 27 17 12 1 15 0 1 0 0 1 2 .357 .411 .512 .923 27   5.4 0.6 6.0 .117 .013 .130 6.31 1955 10 Dave Philley
1955 17 Gil Coan   BAL 7 L 33   42 53 5 0 0 1.000   1955 17 Gil Coan 111 22 5 1 0 11 5 10 0 12 1 1 0 2 1 0 .198 .270 .261 .531 9   1.2 0.5 1.7 .029 .012 .040 1.01 1955 17 Gil Coan
1955 11 Gene Woodling   BAL 7 L 32 RF   26 39 1 0 1 1.000   1955 11 Gene Woodling 63 9 0 1 1 7 8 10 1 8 1 0 1 1 0 2 .143 .267 .222 .489 6   1.0 0.3 1.3 .038 .012 .050 0.84 1955 11 Gene Woodling
1955 19 Hoot Evers   BAL 7 R 34 RF   21 35 0 1 0 .972   1955 19 Hoot Evers 64 15 1 1 1 6 4 2 0 10 0 0 0 0 1 2 .234 .258 .328 .586 4   0.6 0.2 0.8 .029 .010 .038 0.46 1955 19 Hoot Evers
       
1956 3 3 Bob Nieman T7   BAL 6 R 29   114 241 5 5 1 .980   1956 3 3 Bob Nieman 388 125 20 6 12 63 64 86 3 59 0 1 3 1 6 10 .322 .442 .497 .939 85   22.2 1.8 24.0 .195 .016 .211 30.78 1956 3 3 Bob Nieman
1956 17 Dave Philley   BAL 6 B 36 1B,RF   21 22 1 4 1 .852   1956 17 Dave Philley 53 13 1 1 0 5 6 12 2 5 0 0 1 2 1 4 .245 .379 .302 .681 7   0.7 0.2 0.9 .033 .010 .043 0.51 1956 17 Dave Philley
       
1957 6 6 Bob Nieman   BAL 5 R 30   116 231 6 5 0 .979   1957 6 6 Bob Nieman 426 118 16 6 11 60 64 54 3 82 2 3 7 4 3 13 .277 .356 .420 .776 64   12.9 2.3 15.2 .111 .020 .131 14.45 1957 6 6 Bob Nieman
1957 17 Joe Durham R   BAL 5 R 25 RF   37 31 0 0 0 1.000   1957 17 Joe Durham 59 9 1 0 0 4 3 5 0 15 0 3 1 0 1 2 .153 .215 .169 .384 2   - 0.3 0.3 .000 .008 .008 0.07 1957 17 Joe Durham
1957 15 Tito Francona   BAL 5 L 23 RF   27 43 0 0 0 1.000   1957 15 Tito Francona 72 12 4 1 1 12 7 8 1 5 2 0 1 1 1 3 .167 .265 .292 .557 5   0.8 0.4 1.2 .030 .015 .044 0.66 1957 15 Tito Francona
       
1958 6 6 Bob Nieman   BAL 6 R 31   100 145 3 6 0 .961   1958 6 6 Bob Nieman 360 118 19 2 16 60 59 43 5 57 0 1 3 2 8 13 .328 .397 .525 .922 65   16.0 1.3 17.3 .160 .013 .173 19.88 1958 6 6 Bob Nieman
1958 8 Gene Woodling   BAL 6 L 35 RF   60 80 4 2 1 .977   1958 8 Gene Woodling 170 45 8 0 5 24 22 32 0 24 0 3 1 3 2 3 .265 .379 .400 .779 28   6.3 0.8 7.1 .105 .013 .118 6.75 1958 8 Gene Woodling
1958 16 Dick Williams Other   BAL 6 R 29 1B,3B,CF   34 24 1 0 0 1.000   1958 16 Dick Williams 29 11 3 0 0 2 1 2 0 1 0 2 0 0 1 2 .379 .419 .483 .902 5   0.7 0.3 1.0 .021 .009 .029 0.47 1958 16 Dick Williams
1958 18 Lenny Green R   BAL 6 L 25 CF   29 7 1 0 0 1.000   1958 18 Lenny Green 5 3 0 0 0 0 0 0 0 0 0 0 0 0 1 0 .600 .600 .600 1.200 1   0.1 0.1 0.2 .003 .003 .007 0.05 1958 18 Lenny Green
       
Pos St All- Other Left Field Fielding Statistics Pos St Batting Statistics as Left Fielder Win Shares Pos St
Year Rank Rank Name HOF MVP Star Rookie GG SS Team Stdg Bats Age Pos Games PO Assts Err DP F Pct. Year Rank Rank Name At Bats Hits 2B 3B HR Runs RBI BB IBB SO HP SH SF SB CS GDP BA OBA SA OPS RC B WS F WS T WS BWS/G FWS/G TWS/G Adj WSQ Year Rank Rank Name
1959 3 3 Bob Nieman   BAL 6 R 32   97 171 6 5 0 .973   1959 3 3 Bob Nieman 343 101 16 2 21 51 56 36 1 52 2 3 2 1 4 12 .294 .363 .536 .899 63   12.9 2.0 14.9 .133 .021 .154 17.37 1959 3 3 Bob Nieman
1959 6 Gene Woodling 16 a   BAL 6 L 36 RF   72 106 2 3 0 .973   1959 6 Gene Woodling 198 62 12 1 6 27 34 33 3 13 0 0 1 1 1 3 .313 .409 .475 .884 40   8.8 1.2 10.0 .122 .017 .139 11.09 1959 6 Gene Woodling
1959 20 Albie Pearson   BAL 6 L 24 CF,RF   22 10 0 0 0 1.000   1959 20 Albie Pearson 11 1 0 0 0 1 0 1 0 0 0 0 0 1 0 0 .091 .167 .091 .258 0   - 0.1 0.1 .000 .005 .005 0.02 1959 20 Albie Pearson
1959 17 Lenny Green R   BAL 6 L 26 RF   20 7 2 0 0 1.000   1959 17 Lenny Green 15 3 0 0 1 2 2 1 0 1 0 1 0 0 0 0 .200 .250 .400 .650 2   0.3 0.1 0.4 .015 .005 .020 0.16 1959 17 Lenny Green
       
1960 4 4 Gene Woodling T24   BAL 2 L 37   124 202 7 1 0 .995   1960 4 4 Gene Woodling 417 115 17 2 11 68 55 78 6 38 4 3 3 3 0 3 .276 .392 .405 .797 74   17.0 3.3 20.3 .137 .027 .164 22.96 1960 4 4 Gene Woodling
1960 14 Dave Nicholson R   BAL 2 R 20   34 45 2 1 1 .979   1960 14 Dave Nicholson 80 19 1 1 5 12 11 14 0 37 0 0 0 0 2 1 .238 .351 .463 .814 12   1.4 0.8 2.2 .041 .024 .065 1.56 1960 14 Dave Nicholson
1960 13 Gene Stephens   BAL 2 L 27 CF,RF   35 16 0 0 0 1.000   1960 13 Gene Stephens 17 4 1 0 1 2 1 1 0 2 0 0 0 0 0 0 .235 .278 .471 .749 2   0.3 0.2 0.5 .009 .006 .014 0.13 1960 13 Gene Stephens
       
1961 24 10 Dick Williams Other   BAL 3 R 32 1B   73 85 3 3 1 .967   1961 24 10 Dick Williams 246 50 12 2 5 28 12 14 0 31 0 3 3 0 4 7 .203 .243 .329 .572 17   0.4 1.3 1.7 .005 .018 .023 0.84 1961 24 10 Dick Williams
1961 11 Russ Snyder   BAL 3 L 27 CF,RF   76 91 2 4 0 .959   1961 11 Russ Snyder 176 51 7 3 0 25 8 9 0 15 0 6 0 1 1 3 .290 .324 .364 .688 21   3.3 1.3 4.6 .043 .017 .061 3.67 1961 11 Russ Snyder
1961 12 Whitey Herzog   BAL 3 L 29 RF   27 33 0 0 0 1.000   1961 12 Whitey Herzog 82 24 4 2 2 11 10 7 0 11 1 0 0 0 1 1 .293 .356 .463 .819 13   2.4 0.5 2.9 .089 .019 .107 3.08 1961 12 Whitey Herzog
1961 28 Gene Stephens   BAL 3 L 28 CF,RF   28 22 0 0 0 1.000   1961 28 Gene Stephens 29 3 0 0 0 0 0 6 0 4 0 0 0 0 0 0 .103 .257 .103 .360 1   0.1 0.2 0.3 .004 .007 .011 0.09 1961 28 Gene Stephens
1961 27 Dave Philley   BAL 3 B 41   22 16 0 0 0 1.000   1961 27 Dave Philley 64 12 2 2 1 8 5 3 0 6 0 0 1 1 0 2 .188 .221 .328 .549 4   0.3 0.3 0.6 .014 .014 .027 0.32 1961 27 Dave Philley
1961 22 Jackie Brandt a(2)   BAL 3 R 27 CF,RF   21 9 1 0 0 1.000   1961 22 Jackie Brandt 34 10 2 0 2 9 5 6 0 2 0 1 0 0 0 2 .294 .400 .529 .929 7   1.3 0.1 1.4 .062 .005 .067 1.17 1961 22 Jackie Brandt
       
1962 12 8 Boog Powell R   BAL 7 L 20   112 184 1 6 0 .969   1962 12 8 Boog Powell 387 95 13 2 15 48 51 36 5 78 2 0 0 1 1 14 .245 .313 .406 .719 46   6.4 1.8 8.2 .057 .016 .073 6.69 1962 12 8 Boog Powell
1962 17 Russ Snyder   BAL 7 L 28 CF,RF   45 39 2 1 0 .976   1962 17 Russ Snyder 86 27 5 1 0 8 7 2 0 5 1 2 0 2 0 2 .314 .337 .395 .732 11   2.1 0.5 2.6 .047 .011 .058 1.88 1962 17 Russ Snyder
1962 24 Dave Nicholson R   BAL 7 R 22 CF,RF   34 29 0 1 0 .967   1962 24 Dave Nicholson 31 6 2 1 1 3 1 7 0 14 0 1 0 0 1 0 .194 .342 .419 .761 5   0.6 0.3 0.9 .018 .009 .026 0.44 1962 24 Dave Nicholson
1962 25 Dick Williams Other   BAL 7 R 33 1B   21 31 0 0 0 1.000   1962 25 Dick Williams 63 11 1 0 0 5 4 4 0 8 0 0 2 0 0 2 .175 .217 .190 .407 3   0.2 0.3 0.5 .010 .014 .024 0.23 1962 25 Dick Williams
       
1963 5 5 Boog Powell   BAL 4 L 21 1B   121 181 6 6 1 .969   1963 5 5 Boog Powell 433 119 19 2 21 58 75 41 6 73 0 3 3 1 2 11 .275 .335 .473 .808 67   15.3 1.6 16.9 .126 .013 .140 19.04 1963 5 5 Boog Powell
1963 10 Joe Gaines R   BAL 4 R 26   34 45 0 3 0 .938   1963 10 Joe Gaines 89 29 2 1 5 20 15 17 0 22 0 0 1 2 1 2 .326 .430 .539 .969 22   5.4 0.3 5.7 .159 .009 .168 7.04 1963 10 Joe Gaines
1963 21 Jackie Brandt   BAL 4 R 29 CF,RF   31 29 0 0 0 1.000   1963 21 Jackie Brandt 46 13 5 0 0 5 5 4 0 11 0 1 0 0 1 1 .283 .340 .391 .731 6   1.1 0.3 1.4 .035 .010 .045 0.90 1963 21 Jackie Brandt
1963 23 Russ Snyder   BAL 4 L 29 CF,RF   34 13 0 0 0 1.000   1963 23 Russ Snyder 25 5 1 0 0 1 2 1 0 0 1 0 0 1 0 1 .200 .259 .240 .499 2   0.4 0.1 0.5 .012 .003 .015 0.18 1963 23 Russ Snyder
       
1964 1 1 Boog Powell 11   BAL 3 L 22   124 178 13 5 1 .974   1964 1 1 Boog Powell 396 119 16 0 39 74 95 71 6 82 2 2 1 0 0 9 .301 .409 .636 1.045 99   26.1 2.6 28.7 .210 .021 .231 41.44 1964 1 1 Boog Powell
1964 17 Sam Bowens R   BAL 3 R 25 RF   32 42 0 0 0 1.000   1964 17 Sam Bowens 62 20 6 0 2 5 8 2 0 14 0 1 0 0 0 0 .323 .344 .516 .860 11   2.2 0.5 2.7 .069 .016 .084 2.35 1964 17 Sam Bowens
1964 24 Russ Snyder   BAL 3 L 30   31 17 0 1 0 .944   1964 24 Russ Snyder 44 11 2 0 0 4 4 5 0 8 0 0 1 0 1 1 .250 .320 .295 .615 4   0.7 0.2 0.9 .023 .006 .029 0.46 1964 24 Russ Snyder
       
1965 10 9 Boog Powell   BAL 3 L 23 1B   71 120 1 0 0 1.000   1965 10 9 Boog Powell 250 55 8 2 9 27 36 32 5 54 2 3 4 1 0 3 .220 .309 .376 .685 31   7.0 1.5 8.5 .099 .021 .120 8.42 1965 10 9 Boog Powell
1965 8 Curt Blefary R-1   BAL 3 L 21 RF   63 103 4 1 0 .991   1965 8 Curt Blefary 216 57 10 2 11 39 30 37 1 34 2 2 0 2 1 4 .264 .376 .481 .857 41   10.3 1.5 11.8 .163 .024 .187 14.62 1965 8 Curt Blefary
1965 22 Jackie Brandt   BAL 3 R 31 CF,RF   41 34 1 0 0 1.000   1965 22 Jackie Brandt 55 14 2 0 3 9 6 4 0 8 0 0 0 0 1 0 .255 .305 .455 .760 8   1.6 0.4 2.0 .039 .010 .049 1.26 1965 22 Jackie Brandt
1965 24 Russ Snyder   BAL 3 L 31 CF,RF   40 32 2 0 0 1.000   1965 24 Russ Snyder 45 13 2 0 0 10 4 5 0 5 0 0 0 1 0 1 .289 .360 .333 .693 6   1.0 0.5 1.5 .025 .013 .038 0.83 1965 24 Russ Snyder
       
1966 5 5 Curt Blefary   BAL 1 L 22 1B   109 159 5 4 0 .976   1966 5 5 Curt Blefary 357 95 11 2 19 62 58 63 3 44 4 6 3 1 4 6 .266 .379 .468 .847 66   15.4 1.7 17.1 .141 .016 .157 20.90 1966 5 5 Curt Blefary
1966 22 Sam Bowens   BAL 1 R 27 RF   32 47 2 1 0 .980   1966 22 Sam Bowens 98 20 4 1 4 13 6 5 1 19 2 2 0 6 0 3 .204 .257 .388 .645 10   1.0 0.6 1.6 .031 .019 .050 1.10 1966 22 Sam Bowens
1966 21 Russ Snyder   BAL 1 L 32 CF   59 26 0 0 0 1.000   1966 21 Russ Snyder 34 11 4 1 0 3 6 7 0 1 0 1 2 0 1 0 .324 .419 .500 .919 8   1.8 0.3 2.1 .031 .005 .036 1.22 1966 21 Russ Snyder
1966 12 Frank Robinson BBW 1 A   BAL 1 R 30 RF   22 24 1 2 0 .926   1966 12 Frank Robinson 71 18 1 0 8 14 16 6 0 15 0 0 1 0 1 0 .254 .308 .606 .914 13   3.5 0.3 3.8 .159 .014 .173 4.87 1966 12 Frank Robinson
       
1967 6 6 Curt Blefary   BAL T6 L 23 1B,RF   86 143 12 6 4 .963   1967 6 6 Curt Blefary 305 82 8 5 13 45 48 46 6 55 5 2 2 2 2 2 .269 .372 .456 .828 55   11.4 1.4 12.8 .133 .016 .149 14.76 1967 6 6 Curt Blefary
1967 9 Frank Robinson BBW 11 a-inj   BAL T6 R 31 RF   32 50 0 1 0 .980   1967 9 Frank Robinson 112 33 7 2 5 15 18 14 1 23 3 0 2 0 0 4 .295 .382 .527 .909 23   5.9 0.5 6.4 .184 .016 .200 8.55 1967 9 Frank Robinson
1967 18 Russ Snyder   BAL T6 L 33 CF,RF   24 36 1 1 0 .974   1967 18 Russ Snyder 76 15 1 0 1 12 8 12 0 10 0 0 1 1 0 0 .197 .303 .250 .553 7   1.2 0.4 1.6 .050 .017 .067 1.23 1967 18 Russ Snyder
       
Pos St All- Other Left Field Fielding Statistics Pos St Batting Statistics as Left Fielder Win Shares Pos St
Year Rank Rank Name HOF MVP Star Rookie GG SS Team Stdg Bats Age Pos Games PO Assts Err DP F Pct. Year Rank Rank Name At Bats Hits 2B 3B HR Runs RBI BB IBB SO HP SH SF SB CS GDP BA OBA SA OPS RC B WS F WS T WS BWS/G FWS/G TWS/G Adj WSQ Year Rank Rank Name
1968 13 10 Curt Motton R   BAL 2 R 27   54 91 2 1 0 .989   1968 13 10 Curt Motton 190 38 5 0 6 24 18 29 0 38 1 2 3 1 3 6 .200 .305 .321 .626 19   3.3 1.4 4.7 .061 .026 .087 3.97 1968 13 10 Curt Motton
1968 11 Curt Blefary   BAL 2 L 24 C,RF   55 92 4 3 0 .970   1968 11 Curt Blefary 135 30 4 0 7 17 15 23 7 22 1 2 4 5 2 0 .222 .331 .407 .738 21   4.0 1.2 5.2 .073 .022 .095 4.58 1968 11 Curt Blefary
1968 7 Frank Robinson BBW   BAL 2 R 32 RF   55 71 2 3 0 .961   1968 7 Frank Robinson 159 44 12 0 5 24 24 25 2 29 1 0 0 5 1 4 .277 .378 .447 .825 28   8.0 0.9 8.9 .145 .016 .162 10.25 1968 7 Frank Robinson
1968 9 Don Buford T15   BAL 2 B 31 2B,CF   27 44 2 0 0 1.000   1968 9 Don Buford 95 29 4 0 3 13 13 10 2 7 0 0 2 6 5 1 .305 .364 .442 .806 15   4.3 0.5 4.8 .159 .019 .178 5.79 1968 9 Don Buford
       
1969 4 4 Don Buford   BAL 1E B 32   128 228 7 4 1 .983   1969 4 4 Don Buford 500 141 27 1 10 90 57 89 7 57 5 3 4 17 16 4 .282 .393 .400 .793 84   18.2 2.8 21.0 .142 .022 .164 26.50 1969 4 4 Don Buford
1969 20 Merv Rettenmund R   BAL 1E R 26 RF   44 48 0 1 0 .980   1969 20 Merv Rettenmund 73 16 2 0 1 13 8 13 1 11 0 1 2 3 0 1 .219 .330 .288 .618 9   1.6 0.7 2.3 .036 .016 .052 1.64 1969 20 Merv Rettenmund
       
1970 3 3 Don Buford 20   BAL 1E B 33   130 221 13 3 3 .987   1970 3 3 Don Buford 476 129 14 2 17 95 63 102 7 51 8 3 5 15 8 1 .271 .404 .416 .820 92   21.5 2.9 24.4 .165 .022 .188 29.66 1970 3 3 Don Buford
1970 16 Merv Rettenmund   BAL 1E R 27 CF,RF   30 41 2 1 0 .977   1970 16 Merv Rettenmund 71 21 4 0 3 12 12 11 0 13 0 0 0 5 1 2 .296 .390 .479 .869 14   3.4 0.5 3.9 .113 .017 .130 3.95 1970 16 Merv Rettenmund
1970 18 Curt Motton   BAL 1E R 29   20 31 1 0 0 1.000   1970 18 Curt Motton 53 15 3 1 3 14 15 12 0 11 1 2 0 1 1 0 .283 .424 .547 .971 13   2.4 0.4 2.8 .120 .020 .140 2.94 1970 18 Curt Motton
       
1971 2 2 Don Buford 26 a   BAL 1E B 34   115 217 6 3 0 .987   1971 2 2 Don Buford 441 128 17 4 19 99 54 89 15 59 7 2 2 15 7 2 .290 .416 .476 .892 93   23.2 3.0 26.2 .202 .026 .228 36.56 1971 2 2 Don Buford
1971 14 Merv Rettenmund T19   BAL 1E R 28 CF,RF   47 70 2 3 1 .960   1971 14 Merv Rettenmund 129 36 4 0 0 19 12 25 1 15 1 0 1 3 0 4 .279 .397 .310 .707 18   4.5 0.9 5.4 .096 .019 .115 5.35 1971 14 Merv Rettenmund
       
1972 8 8 Don Buford   BAL 3E B 35   105 173 7 2 1 .989   1972 8 8 Don Buford 389 82 6 2 4 45 21 64 8 72 4 3 1 7 3 4 .211 .328 .267 .595 39   6.5 2.3 8.8 .062 .022 .084 7.68 1972 8 8 Don Buford
1972 14 Don Baylor R   BAL 3E R 23 RF   39 60 2 1 0 .984   1972 14 Don Baylor 114 26 4 1 1 5 10 9 0 13 3 1 1 10 0 3 .228 .299 .307 .606 12   2.8 0.7 3.5 .072 .018 .090 3.16 1972 14 Don Baylor
       
1973 4 4 Don Baylor   BAL 1E R 24   109 202 5 4 0 .981   1973 4 4 Don Baylor 368 107 20 4 11 59 46 34 3 43 12 0 5 27 8 9 .291 .365 .457 .822 64   12.4 2.9 15.3 .114 .027 .140 18.13 1973 4 4 Don Baylor
1973 5 Al Bumbry R-1   BAL 1E L 26 RF   63 96 0 3 0 .970   1973 5 Al Bumbry 227 78 8 4 5 43 22 23 0 41 3 0 1 12 7 4 .344 .409 .480 .889 45   10.3 1.4 11.7 .163 .022 .186 15.94 1973 5 Al Bumbry
       
1974 5 3 Don Baylor   BAL 1E R 25 RF   114 184 1 5 0 .974   1974 5 3 Don Baylor 383 108 19 1 10 57 47 34 5 43 8 3 2 23 10 8 .282 .351 .415 .766 56   12.7 1.5 14.2 .111 .013 .125 15.54 1974 5 3 Don Baylor
1974 20 Al Bumbry   BAL 1E L 27   67 115 7 6 0 .953   1974 20 Al Bumbry 247 56 9 3 1 28 16 18 1 39 1 3 3 10 3 3 .227 .279 .300 .579 22   2.8 1.0 3.8 .042 .015 .057 2.81 1974 20 Al Bumbry
       
1975 1 1 Don Baylor T21   BAL 2E R 26   127 252 8 3 0 .989   1975 1 1 Don Baylor 467 131 17 5 21 70 68 50 8 57 13 4 4 23 14 11 .281 .363 .473 .836 79   17.9 3.2 21.1 .141 .025 .166 25.93 1975 1 1 Don Baylor
1975 15 Al Bumbry   BAL 2E L 28 DH   35 66 2 0 1 1.000   1975 15 Al Bumbry 139 43 10 1 2 18 16 7 0 35 0 2 1 2 1 1 .309 .340 .439 .779 21   4.2 0.9 5.1 .120 .026 .146 5.87 1975 15 Al Bumbry
       
1976 5 5 Ken Singleton   BAL 2E B 29 RF   82 147 5 2 1 .987   1976 5 5 Ken Singleton 271 76 16 0 7 31 41 37 3 37 0 1 4 1 1 7 .280 .362 .417 .779 42   10.7 1.3 12.0 .130 .016 .146 14.17 1976 5 5 Ken Singleton
1976 10 Al Bumbry   BAL 2E L 29 CF   84 135 7 2 0 .986   1976 10 Al Bumbry 224 57 8 6 4 32 20 25 0 42 1 1 1 20 5 3 .254 .331 .397 .728 32   7.2 1.3 8.5 .086 .015 .101 8.34 1976 10 Al Bumbry
1976 24 Andres Mora R   BAL 2E R 21 DH   30 53 3 3 0 .949   1976 24 Andres Mora 96 26 6 0 5 12 13 4 0 25 0 2 1 0 0 2 .271 .297 .490 .787 13   1.9 0.4 2.3 .063 .013 .077 1.97 1976 24 Andres Mora
       
1977 12 10 Pat Kelly   BAL T2E L 32 RF   92 154 1 2 1 .987   1977 12 10 Pat Kelly 292 66 12 0 6 38 36 41 5 62 3 2 4 16 5 5 .226 .324 .329 .653 34   7.4 1.1 8.5 .080 .012 .092 8.13 1977 12 10 Pat Kelly
1977 19 Andres Mora   BAL T2E R 22   57 66 2 0 0 1.000   1977 19 Andres Mora 198 47 7 2 10 30 36 4 1 42 1 0 2 0 0 3 .237 .254 .444 .698 22   4.0 0.6 4.6 .070 .011 .081 4.11 1977 19 Andres Mora
1977 23 Al Bumbry   BAL T2E L 30 CF   59 49 2 2 0 .962   1977 23 Al Bumbry 73 16 3 1 1 13 3 13 1 18 0 1 0 4 2 2 .219 .337 .329 .666 9   2.2 0.5 2.7 .037 .008 .046 1.82 1977 23 Al Bumbry
1977 38 Tom Shopay   BAL T2E L 32 CF   24 15 1 0 0 1.000   1977 38 Tom Shopay 14 3 0 0 1 2 2 1 0 1 0 0 0 1 0 0 .214 .267 .429 .696 2   - 0.1 0.1 .000 .004 .004 0.02 1977 38 Tom Shopay
       
1978 10 9 Pat Kelly   BAL 4E L 33   73 116 3 4 1 .967   1978 10 9 Pat Kelly 237 65 11 1 8 31 33 28 0 48 1 3 1 8 5 6 .274 .352 .430 .782 36   8.6 0.9 9.5 .118 .012 .130 10.78 1978 10 9 Pat Kelly
1978 26 Andres Mora   BAL 4E R 23   69 129 4 3 0 .978   1978 26 Andres Mora 216 49 8 0 8 23 14 13 1 41 1 2 1 0 1 5 .227 .273 .375 .648 18   1.5 1.1 2.6 .022 .016 .038 1.59 1978 26 Andres Mora
1978 41 Mike Anderson   BAL 4E R 27   42 15 0 1 0 .938   1978 41 Mike Anderson 8 0 0 0 0 0 1 1 0 3 0 1 0 0 0 0 .000 .111 .000 .111 0   - 0.2 0.2 .000 .005 .005 0.04 1978 41 Mike Anderson
1978 23 Gary Roenicke R   BAL 4E R 23   20 22 1 0 0 1.000   1978 23 Gary Roenicke 52 14 2 0 3 5 11 6 0 1 1 1 1 0 1 3 .269 .350 .481 .831 8   1.9 0.2 2.1 .095 .010 .105 2.14 1978 23 Gary Roenicke
       
1979 7 6 Gary Roenicke   BAL 1E R 24 CF   115 180 6 2 1 .989   1979 7 6 Gary Roenicke 279 70 10 0 18 40 46 45 4 58 9 1 3 0 3 11 .251 .369 .480 .849 49   10.4 2.7 13.1 .090 .023 .114 13.64 1979 7 6 Gary Roenicke
1979 18 John Lowenstein   BAL 6E L 32 RF   46 71 0 0 0 1.000   1979 18 John Lowenstein 109 26 6 2 8 18 19 13 1 25 0 0 2 7 1 1 .239 .315 .550 .865 20   4.2 1.0 5.2 .091 .022 .113 5.40 1979 18 John Lowenstein
1979 20 Pat Kelly   BAL 1E L 34   23 35 0 0 0 1.000   1979 20 Pat Kelly 66 19 5 0 5 10 9 10 1 9 1 0 2 1 3 1 .288 .380 .591 .971 14   3.0 0.5 3.5 .130 .022 .152 4.21 1979 20 Pat Kelly
1979 28 Bennie Ayala R   BAL 1E R 28   23 38 0 1 0 .974   1979 28 Bennie Ayala 63 16 4 0 6 15 12 3 0 6 0 0 2 0 0 2 .254 .279 .603 .882 10   1.8 0.5 2.3 .078 .022 .100 2.24 1979 28 Bennie Ayala
       
Pos St All- Other Left Field Fielding Statistics Pos St Batting Statistics as Left Fielder Win Shares Pos St
Year Rank Rank Name HOF MVP Star Rookie GG SS Team Stdg Bats Age Pos Games PO Assts Err DP F Pct. Year Rank Rank Name At Bats Hits 2B 3B HR Runs RBI BB IBB SO HP SH SF SB CS GDP BA OBA SA OPS RC B WS F WS T WS BWS/G FWS/G TWS/G Adj WSQ Year Rank Rank Name
1980 15 10 Gary Roenicke BAL 2E R 25 RF   87 140 7 0 1 1.000   1980 15 10 Gary Roenicke 226 53 11 0 10 30 24 31 3 40 4 1 1 2 0 5 .235 .336 .416 .752 33   5.2 1.4 6.6 .060 .016 .076 5.36 1980 15 10 Gary Roenicke
1980 12 John Lowenstein BAL 2E L 33   88 121 2 1 0 .992   1980 12 John Lowenstein 163 52 6 0 4 31 18 26 0 21 0 0 2 6 2 1 .319 .408 .429 .837 32   6.8 1.1 7.9 .077 .013 .090 6.98 1980 12 John Lowenstein
1980 17 Pat Kelly BAL 2E L 35 DH   36 48 4 0 0 1.000   1980 17 Pat Kelly 89 28 4 0 1 24 9 21 0 15 0 0 2 13 1 1 .315 .438 .393 .831 20   3.9 0.6 4.5 .108 .017 .125 4.69 1980 17 Pat Kelly
     
1981 15 13 John Lowenstein BAL 2E L 34   68 94 3 1 0 .990   1981 15 13 John Lowenstein 163 38 5 0 6 17 15 17 0 32 1 0 1 7 6 7 .233 .308 .374 .682 17   2.9 0.8 3.7 .043 .012 .054 2.55 1981 15 13 John Lowenstein
1981 17 Gary Roenicke BAL 2E R 26 RF   47 88 0 2 0 .978   1981 17 Gary Roenicke 111 26 6 0 2 8 6 5 0 16 0 3 1 0 0 6 .234 .265 .342 .607 9   1.7 0.7 2.4 .036 .015 .051 1.60 1981 17 Gary Roenicke
1981 19 Jim Dwyer BAL 2E L 31   43 47 0 0 0 1.000   1981 19 Jim Dwyer 64 14 0 1 1 8 4 10 0 10 0 0 3 0 1 1 .219 .312 .297 .609 7   1.2 0.4 1.6 .028 .009 .037 0.91 1981 19 Jim Dwyer
     
1982 4 4 John Lowenstein BAL 2E L 35   111 198 2 0 0 1.000   1982 4 4 John Lowenstein 302 97 15 2 23 68 60 52 9 54 1 3 2 7 6 5 .321 .420 .613 1.033 74   18.5 2.2 20.7 .167 .020 .186 26.25 1982 4 4 John Lowenstein
1982 12 Gary Roenicke BAL 2E R 27 CF,RF   82 135 6 1 0 .993   1982 12 Gary Roenicke 174 43 13 1 10 26 33 25 0 33 5 2 0 0 2 4 .247 .358 .506 .864 31   6.9 1.6 8.5 .084 .020 .104 8.04 1982 12 Gary Roenicke
1982 21 Bennie Ayala BAL 2E R 31   25 35 0 1 0 .972   1982 21 Bennie Ayala 61 15 2 0 3 8 9 2 1 6 0 0 0 1 0 2 .246 .270 .426 .696 6   1.3 0.4 1.7 .052 .016 .068 1.30 1982 21 Bennie Ayala
     
1983 9 9 John Lowenstein BAL 1E L 36   106 155 8 3 1 .982   1983 9 9 John Lowenstein 290 82 12 2 14 52 52 44 0 50 1 0 4 2 1 2 .283 .375 .483 .858 57   12.6 1.7 14.3 .119 .016 .135 15.56 1983 9 9 John Lowenstein
1983 11 Gary Roenicke BAL 1E R 28 RF   80 109 3 2 0 .982   1983 11 Gary Roenicke 170 57 6 0 15 29 46 17 1 12 3 2 3 0 2 3 .335 .399 .635 1.034 43   8.1 1.2 9.3 .101 .015 .116 9.39 1983 11 Gary Roenicke
     
1984 12 10 Gary Roenicke BAL 5E R 29 RF   85 121 4 0 0 1.000   1984 12 10 Gary Roenicke 214 54 16 0 9 24 35 31 1 30 3 0 1 1 2 4 .252 .353 .453 .806 35   6.0 1.5 7.5 .071 .018 .088 7.19 1984 12 10 Gary Roenicke
1984 21 John Lowenstein BAL 5E L 37 DH   67 94 5 3 0 .971   1984 21 John Lowenstein 175 44 7 0 6 19 19 19 1 33 1 0 2 1 0 5 .251 .325 .394 .719 23   3.6 1.1 4.7 .054 .016 .070 4.02 1984 21 John Lowenstein
1984 16 Mike Young R-5 BAL 5E B 24 RF   40 70 1 0 0 1.000   1984 16 Mike Young 121 34 6 0 4 17 18 16 0 28 1 1 0 2 1 3 .281 .370 .430 .800 20   4.2 0.7 4.9 .105 .018 .123 5.54 1984 16 Mike Young
1984 37 Al Bumbry BAL 5E L 37 CF   28 19 0 1 0 .950   1984 37 Al Bumbry 30 8 0 0 0 2 0 2 0 4 0 0 0 0 1 0 .267 .313 .267 .580 2   0.2 0.2 0.4 .007 .007 .014 0.15 1984 37 Al Bumbry
     
1985 4 4 Mike Young BAL 4E B 25 RF,DH   83 163 4 5 0 .971   1985 4 4 Mike Young 281 82 15 0 20 46 55 29 4 65 3 0 0 0 1 5 .292 .364 .559 .923 57   11.0 1.3 12.3 .133 .016 .148 15.70 1985 4 4 Mike Young
1985 16 Gary Roenicke BAL 4E R 30   76 113 5 1 0 .992   1985 16 Gary Roenicke 150 33 7 0 11 25 29 29 0 21 0 1 1 1 0 2 .220 .344 .487 .831 27   4.8 1.1 5.9 .063 .014 .078 5.45 1985 16 Gary Roenicke
1985 21 Jim Dwyer BAL 4E L 35 RF   46 90 1 1 0 .989   1985 21 Jim Dwyer 125 32 4 1 5 17 21 15 0 11 1 1 0 0 1 3 .256 .340 .424 .764 18   2.9 0.8 3.7 .063 .017 .080 3.48 1985 21 Jim Dwyer
     
1986 14 10 Mike Young BAL 7E B 26 DH   69 149 1 6 0 .962   1986 14 10 Mike Young 220 58 10 0 6 32 25 37 2 56 3 2 2 1 0 8 .264 .374 .391 .765 34   4.8 0.9 5.7 .070 .013 .083 5.21 1986 14 10 Mike Young
1986 17 Juan Beniquez BAL 7E R 36 3B   44 82 1 3 0 .965   1986 17 Juan Beniquez 131 43 8 0 3 16 18 11 0 18 3 1 1 2 0 3 .328 .390 .458 .848 24   4.0 0.5 4.5 .091 .011 .102 4.57 1986 17 Juan Beniquez
1986 35 John Shelby BAL 7E B 28 CF,RF   49 58 1 2 0 .967   1986 35 John Shelby 100 16 4 1 2 11 10 4 0 23 1 1 0 3 1 1 .160 .200 .280 .480 6   0.5 0.5 1.0 .010 .010 .020 0.45 1986 35 John Shelby
1986 22 Larry Sheets BAL 7E L 26 DH   21 46 1 0 1 1.000   1986 22 Larry Sheets 68 18 5 0 7 10 16 4 0 13 0 0 1 0 0 4 .265 .301 .647 .948 11   1.7 0.2 1.9 .081 .010 .090 1.82 1986 22 Larry Sheets
     
1987 9 8 Larry Sheets BAL 6E L 27 RF   72 126 1 4 1 .969   1987 9 8 Larry Sheets 235 70 11 0 17 40 50 19 1 33 2 0 1 0 1 11 .298 .354 .562 .916 42   8.2 0.8 9.0 .114 .011 .125 10.06 1987 9 8 Larry Sheets
1987 21 Mike Young BAL 6E B 27 DH   54 109 0 2 0 .982   1987 21 Mike Young 185 47 7 0 9 25 18 16 1 46 2 0 0 5 2 3 .254 .320 .438 .758 26   3.5 0.6 4.1 .065 .011 .076 3.57 1987 21 Mike Young
1987 26 Ken Gerhart R BAL 6E R 25 CF   53 73 3 4 0 .950   1987 26 Ken Gerhart 144 36 6 1 7 21 17 7 0 33 1 5 1 5 1 5 .250 .288 .451 .739 18   2.1 0.5 2.6 .040 .009 .049 1.82 1987 26 Ken Gerhart
     
1988 25 14 Pete Stanicek R BAL 7E B 25   65 128 4 2 2 .985   1988 25 14 Pete Stanicek 218 52 6 1 4 27 13 26 0 39 2 5 0 11 6 6 .239 .325 .330 .655 24   2.0 0.6 2.6 .031 .009 .040 1.64 1988 25 14 Pete Stanicek
1988 27 Larry Sheets BAL 7E L 28 RF,DH   42 74 7 3 0 .964   1988 27 Larry Sheets 141 38 10 0 1 15 15 12 1 23 0 0 1 1 1 4 .270 .325 .362 .687 16   1.7 0.5 2.2 .040 .012 .052 1.58 1988 27 Larry Sheets
1988 22 Joe Orsulak BAL 7E L 26 RF   37 69 0 0 0 1.000   1988 22 Joe Orsulak 120 35 8 3 2 16 8 4 0 8 0 4 1 1 1 1 .292 .312 .458 .770 17   2.8 0.4 3.2 .076 .011 .086 2.96 1988 22 Joe Orsulak
1988 30 Ken Gerhart BAL 7E R 26 CF   30 44 1 1 1 .978   1988 30 Ken Gerhart 64 18 5 0 4 11 6 6 0 19 1 1 0 3 0 0 .281 .352 .547 .899 14   0.8 0.2 1.0 .027 .007 .033 0.57 1988 30 Ken Gerhart
     
1989 2 2 Phil Bradley BAL 2E R 30   140 284 4 3 0 .990   1989 2 2 Phil Bradley 537 150 22 10 11 82 55 69 3 101 7 4 4 19 6 10 .279 .366 .419 .785 81   17.5 2.3 19.8 .125 .016 .141 23.09 1989 2 2 Phil Bradley
1989 29 Joe Orsulak BAL 2E L 27 RF   20 42 4 1 1 .979   1989 29 Joe Orsulak 71 15 5 1 0 11 9 5 0 7 0 2 0 1 0 3 .211 .263 .310 .573 5   1.0 0.4 1.4 .050 .020 .070 1.15 1989 29 Joe Orsulak
     
1990 9 10 Phil Bradley BAL 5E R 31   70 149 3 2 0 .987   1990 9 10 Phil Bradley 285 77 9 1 3 37 21 29 1 34 7 6 0 10 4 9 .270 .352 .340 .692 35   5.8 1.4 7.2 .083 .020 .103 7.38 1990 9 10 Phil Bradley
1990 27 Brady Anderson BAL 5E L 26 CF   44 103 2 1 0 .991   1990 27 Brady Anderson 130 24 1 0 2 13 8 11 0 24 3 3 3 10 0 2 .185 .259 .238 .497 10   1.8 1.0 2.8 .041 .023 .064 2.29 1990 27 Brady Anderson
1990 20 Joe Orsulak BAL 5E L 28 RF   30 64 3 1 1 .985   1990 20 Joe Orsulak 109 28 3 0 4 14 15 11 2 15 0 1 1 3 1 1 .257 .322 .394 .716 15   3.0 0.6 3.6 .100 .020 .120 4.05 1990 20 Joe Orsulak
1990 39 Steve Finley BAL 5E L 25 CF,RF   21 20 0 0 0 1.000   1990 39 Steve Finley 36 10 3 0 0 5 2 4 0 2 1 0 1 1 1 1 .278 .357 .361 .718 5   0.6 0.2 0.8 .029 .010 .038 0.51 1990 39 Steve Finley
     
Pos St All- Other Left Field Fielding Statistics Pos St Batting Statistics as Left Fielder Win Shares Pos St
Year Rank Rank Name HOF MVP Star Rookie GG SS Team Stdg Bats Age Pos Games PO Assts Err DP F Pct. Year Rank Rank Name At Bats Hits 2B 3B HR Runs RBI BB IBB SO HP SH SF SB CS GDP BA OBA SA OPS RC B WS F WS T WS BWS/G FWS/G TWS/G Adj WSQ Year Rank Rank Name
1991 16 13 Joe Orsulak BAL 6E L 29 RF   85 161 13 0 2 1.000   1991 16 13 Joe Orsulak 303 87 15 1 3 41 25 19 0 28 2 0 1 5 1 3 .287 .332 .373 .705 39   5.0 1.2 6.2 .059 .014 .073 5.52 1991 16 13 Joe Orsulak
1991 27 Brady Anderson BAL 6E L 27 CF   75 84 2 3 0 .966   1991 27 Brady Anderson 142 27 7 1 2 14 17 20 0 23 4 8 0 2 2 1 .190 .307 .296 .603 15   2.3 0.5 2.8 .031 .007 .037 1.78 1991 27 Brady Anderson
1991 35 David Segui R BAL 6E B 24 1B   28 47 1 2 0 .960   1991 35 David Segui 90 23 5 0 1 7 10 4 0 9 0 1 1 0 1 5 .256 .284 .344 .628 7   0.7 0.2 0.9 .025 .007 .032 0.53 1991 35 David Segui
     
1992 2 2 Brady Anderson T14 a BAL 3E L 28   148 359 10 7 6 .981   1992 2 2 Brady Anderson 580 154 24 7 21 92 74 94 14 93 9 10 8 51 15 2 .266 .372 .440 .812 108   23.6 3.8 27.4 .159 .026 .185 35.55 1992 2 2 Brady Anderson
     
1993 6 6 Brady Anderson BAL T3E L 29   126 244 4 2 0 .992   1993 6 6 Brady Anderson 482 129 33 7 13 75 59 77 4 85 8 6 5 20 12 2 .268 .374 .446 .820 87   13.4 3.1 16.5 .106 .025 .131 18.17 1993 6 6 Brady Anderson
1993 19 Jack Voigt R BAL T3E R 27 RF   22 40 0 0 0 1.000   1993 19 Jack Voigt 58 16 3 0 2 12 6 9 0 11 0 0 0 1 0 1 .276 .373 .431 .804 10   1.8 0.5 2.3 .082 .023 .105 2.26 1993 19 Jack Voigt
     
1994 10 9 Brady Anderson BAL 2E L 30 CF   76 153 1 0 0 1.000   1994 10 9 Brady Anderson 291 71 13 3 5 43 23 37 3 46 5 2 1 19 1 3 .244 .338 .361 .699 41   5.2 2.0 7.2 .068 .026 .095 6.84 1994 10 9 Brady Anderson
1994 17 Dwight Smith BAL 2E L 30   20 24 0 2 0 .923   1994 17 Dwight Smith 63 18 2 1 3 12 11 5 1 16 0 0 0 0 0 1 .286 .338 .492 .830 9   1.1 0.2 1.3 .055 .010 .065 1.02 1994 17 Dwight Smith
     
1995 4 4 Brady Anderson BAL 3E L 31 CF   121 196 0 2 0 .990   1995 4 4 Brady Anderson 416 110 23 7 10 87 44 71 3 78 9 4 2 22 5 3 .264 .382 .425 .807 77   11.8 2.5 14.3 .098 .021 .118 16.03 1995 4 4 Brady Anderson
1995 35 Kevin Bass BAL 3E B 36 RF   32 60 1 1 0 .984   1995 35 Kevin Bass 88 19 3 0 2 10 7 7 0 11 0 3 0 3 2 6 .216 .274 .318 .592 6   0.1 0.8 0.9 .003 .025 .028 0.49 1995 35 Kevin Bass
     
1996 28 13 Jeffrey Hammonds BAL 2E R 25   64 122 2 2 0 .984   1996 28 13 Jeffrey Hammonds 206 47 10 1 8 34 23 20 0 47 3 5 1 2 2 6 .228 .304 .403 .707 25   1.6 0.8 2.4 .025 .013 .038 1.52 1996 28 13 Jeffrey Hammonds
1996 32 Luis Polonia BAL 2E L 31   32 53 1 1 0 .982   1996 32 Luis Polonia 173 41 4 1 2 25 14 10 0 20 1 1 0 8 6 10 .237 .283 .306 .589 12   1.2 0.3 1.5 .038 .009 .047 1.06 1996 32 Luis Polonia
1996 35 Mike Devereaux BAL 2E R 33 CF,RF   35 41 1 1 1 .977   1996 35 Mike Devereaux 100 26 5 0 2 15 12 7 0 19 0 1 2 3 0 4 .260 .303 .370 .673 11   0.7 0.3 1.0 .020 .009 .029 0.55 1996 35 Mike Devereaux
1996 19 B.J. Surhoff BAL 2E L 31 3B   27 47 1 1 0 .980   1996 19 B.J. Surhoff 88 28 4 1 2 13 12 10 2 15 0 2 0 0 0 2 .318 .388 .455 .843 16   2.5 0.4 2.9 .093 .015 .107 3.12 1996 19 B.J. Surhoff
1996 37 Brent Bowers R BAL 2E L 25   21 22 2 0 0 1.000   1996 37 Brent Bowers 39 12 2 0 0 6 3 0 0 7 0 0 0 0 0 1 .308 .308 .359 .667 3   - 0.2 0.2 .000 .010 .010 0.06 1996 37 Brent Bowers
     
1997 3 2 B.J. Surhoff BAL 1E L 32   133 249 11 2 3 .992   1997 3 2 B.J. Surhoff 480 137 26 3 16 70 84 44 12 54 5 2 10 1 1 6 .285 .345 .452 .797 77   13.6 3.7 17.3 .102 .028 .130 20.14 1997 3 2 B.J. Surhoff
1997 19 Jeffrey Hammonds BAL 1E R 26 CF,RF   31 55 2 2 0 .966   1997 19 Jeffrey Hammonds 89 22 3 1 8 14 14 2 0 14 2 0 1 3 0 1 .247 .277 .573 .850 14   2.3 0.9 3.2 .074 .029 .103 3.32 1997 19 Jeffrey Hammonds
     
1998 8 8 B.J. Surhoff BAL 4E L 33   157 257 12 3 2 .989   1998 8 8 B.J. Surhoff 565 159 33 1 22 79 91 48 9 81 1 1 10 9 6 12 .281 .333 .460 .793 85   11.1 1.8 12.9 .071 .011 .082 11.52 1998 8 8 B.J. Surhoff
     
1999 6 6 B.J. Surhoff T18 a BAL 4E L 34   148 282 16 0 5 1.000   1999 6 6 B.J. Surhoff 609 185 34 1 27 91 100 39 1 68 2 1 7 5 1 15 .304 .344 .496 .840 102   12.2 3.4 15.6 .082 .023 .105 17.07 1999 6 6 B.J. Surhoff
     
2000 11 9 B.J. Surhoff BAL 4E L 35 NL-LF   102 224 5 3 1 .987   2000 11 9 B.J. Surhoff 408 119 27 0 13 55 57 28 3 46 2 1 1 6 2 5 .292 .339 .453 .792 63   8.5 1.9 10.4 .083 .019 .102 10.35 2000 11 9 B.J. Surhoff
2000 19 Delino DeShields BAL 4E L 31 2B   39 75 3 1 1 .987   2000 19 Delino DeShields 133 35 9 1 2 13 25 24 2 17 0 2 2 8 4 6 .263 .371 .391 .762 19   3.7 0.6 4.3 .095 .015 .110 4.45 2000 19 Delino DeShields
     
2001 22 13 Brady Anderson BAL 4E L 37 RF   56 96 1 0 0 1.000   2001 22 13 Brady Anderson 150 30 4 0 2 14 10 24 1 35 2 1 1 3 1 2 .200 .316 .267 .583 15   2.6 0.8 3.4 .046 .014 .061 2.81 2001 22 13 Brady Anderson
2001 25 Delino DeShields BAL 4E L 32 NL-LF   46 86 2 3 0 .967   2001 25 Delino DeShields 159 33 7 2 2 25 18 27 1 36 1 0 1 9 1 1 .208 .324 .314 .638 18   2.2 0.6 2.8 .048 .013 .061 2.32 2001 25 Delino DeShields
2001 26 Jay Gibbons R BAL 4E L 24 DH   28 62 3 0 0 1.000   2001 26 Jay Gibbons 100 24 5 0 10 13 20 5 0 15 2 0 0 0 1 1 .240 .290 .590 .880 16   1.7 0.5 2.2 .061 .018 .079 2.07 2001 26 Jay Gibbons
2001 30 Mike Kinkade R BAL 4E R 28   29 49 0 2 0 .961   2001 30 Mike Kinkade 81 24 5 0 3 13 14 8 0 18 3 0 0 2 0 5 .296 .380 .469 .849 14   0.9 0.3 1.2 .031 .010 .041 0.82 2001 30 Mike Kinkade
2001 15 Jeff Conine BAL 4E R 35 1B   22 44 1 0 0 1.000   2001 15 Jeff Conine 77 25 3 1 2 13 14 8 0 6 1 0 2 3 0 1 .325 .386 .468 .854 15   3.8 0.3 4.1 .173 .014 .186 5.93 2001 15 Jeff Conine
     
2002 8 8 Melvin Mora BAL 4E R 30 SS,CF   74 159 6 2 3 .988   2002 8 8 Melvin Mora 247 58 12 3 11 39 33 32 2 45 7 1 3 10 2 2 .235 .336 .441 .777 40   6.4 1.3 7.7 .086 .018 .104 8.23 2002 8 8 Melvin Mora
2002 16 Marty Cordova BAL 4E R 32 DH   72 132 2 4 1 .971   2002 16 Marty Cordova 256 65 14 0 12 30 35 24 3 58 2 2 1 1 5 9 .254 .322 .449 .771 33   4.5 0.7 5.2 .063 .010 .072 4.63 2002 16 Marty Cordova
     
2003 12 9 Larry Bigbie BAL 4E L 25   76 153 4 1 0 .994   2003 12 9 Larry Bigbie 268 83 14 1 8 41 29 28 3 56 0 1 1 7 1 2 .310 .374 .459 .833 48   8.2 1.0 9.2 .108 .013 .121 9.52 2003 12 9 Larry Bigbie
2003 6 Melvin Mora a BAL 4E R 31   56 118 8 0 2 1.000   2003 6 Melvin Mora 204 64 8 1 10 41 34 28 0 39 5 2 2 4 2 3 .314 .406 .510 .916 45   8.8 1.0 9.8 .157 .018 .175 12.20 2003 6 Melvin Mora
2003 22 B.J. Surhoff BAL 4E L 38 1B,DH   24 40 0 1 0 .976   2003 22 B.J. Surhoff 88 30 7 0 1 11 18 6 0 1 0 2 2 2 1 1 .341 .375 .455 .830 16   3.1 0.2 3.3 .129 .008 .138 3.64 2003 22 B.J. Surhoff
     
2004 12 11 Larry Bigbie BAL 3E L 26 CF   114 215 2 2 0 .991   2004 12 11 Larry Bigbie 372 101 19 1 13 55 55 37 0 83 0 2 2 7 2 7 .272 .336 .433 .769 55   6.8 1.7 8.5 .060 .015 .075 7.03 2004 12 11 Larry Bigbie
2004 20 B.J. Surhoff BAL 3E L 39 RF   34 69 0 1 0 .986   2004 20 B.J. Surhoff 115 33 3 0 3 15 14 10 1 14 0 1 0 0 0 2 .287 .344 .391 .735 16   2.6 0.5 3.1 .076 .015 .091 2.84 2004 20 B.J. Surhoff
     
Pos St All- Other Left Field Fielding Statistics Pos St Batting Statistics as Left Fielder Win Shares Pos St
Year Rank Rank Name HOF MVP Star Rookie GG SS Team Stdg Bats Age Pos Games PO Assts Err DP F Pct. Year Rank Rank Name At Bats Hits 2B 3B HR Runs RBI BB IBB SO HP SH SF SB CS GDP BA OBA SA OPS RC B WS F WS T WS BWS/G FWS/G TWS/G Adj WSQ Year Rank Rank Name
2005 21 14 Larry Bigbie BAL 4E L 27   57 98 3 0 0 1.000   2005 21 14 Larry Bigbie 185 47 8 1 5 20 19 18 1 45 0 4 2 3 2 2 .254 .317 .389 .706 24   2.1 0.9 3.0 .037 .016 .053 2.13 2005 21 14 Larry Bigbie
2005 14 Eric Byrnes BAL 4E R 29   51 91 2 3 0 .969   2005 14 Eric Byrnes 164 31 7 1 3 17 10 11 0 32 1 2 0 3 0 5 .189 .244 .299 .543 15   1.8 1.4 3.2 .035 .027 .063 2.47 2005 14 Eric Byrnes
2005 23 B.J. Surhoff BAL 4E L 40   46 76 3 0 0 1.000   2005 23 B.J. Surhoff 161 42 5 2 4 22 17 6 0 18 0 1 1 0 0 3 .261 .286 .391 .677 17   0.9 0.7 1.6 .020 .015 .035 0.93 2005 23 B.J. Surhoff
2005 26 David Newhan BAL 4E L 31 CF,RF   20 18 1 0 0 1.000   2005 26 David Newhan 60 13 4 0 2 10 6 6 0 12 1 0 1 2 0 0 .217 .294 .383 .677 8   0.4 0.2 0.6 .020 .010 .030 0.32 2005 26 David Newhan
     
2006 24 13 Jeff Conine BAL 4E R 40 1B,RF   56 84 5 1 1 .989   2006 24 13 Jeff Conine 198 58 10 3 4 18 26 14 2 18 0 1 1 2 2 4 .293 .338 .434 .772 28   2.7 0.6 3.3 .048 .011 .059 2.53 2006 24 13 Jeff Conine
2006 26 Brandon Fahey R BAL 4E L 25   53 101 2 5 1 .954   2006 26 Brandon Fahey 149 34 7 2 1 18 16 15 0 32 3 7 0 3 1 2 .228 .311 .322 .633 16   1.5 0.6 2.1 .028 .011 .040 1.32 2006 26 Brandon Fahey
2006 27 Nick Markakis R-6 BAL 4E L 22 RF   26 59 1 1 0 .984   2006 27 Nick Markakis 77 14 3 1 0 7 4 14 1 12 1 0 0 0 0 3 .182 .315 .247 .562 6   0.8 0.5 1.3 .031 .019 .050 0.92 2006 27 Nick Markakis
2006 35 Luis Matos BAL 4E R 27   31 21 0 0 0 1.000   2006 35 Luis Matos 44 11 4 0 0 4 2 3 0 6 1 0 0 1 0 0 .250 .313 .341 .654 5   - 0.1 0.1 .000 .003 .003 0.02 2006 35 Luis Matos
     
2007 15 11 Jay Payton BAL 4E R 34   123 232 2 5 1 .979   2007 15 11 Jay Payton 375 96 18 4 7 40 50 18 0 36 2 3 6 4 1 7 .256 .289 .381 .670 41   4.1 2.6 6.7 .033 .021 .054 5.27 2007 15 11 Jay Payton
2007 33 Jay Gibbons BAL 4E L 30 DH   43 75 1 2 1 .974   2007 33 Jay Gibbons 147 30 10 0 1 17 17 10 1 25 2 0 1 0 0 3 .204 .263 .293 .556 11   0.3 0.8 1.1 .007 .019 .026 0.59 2007 33 Jay Gibbons
2007 35 Freddie Bynum BAL 4E L 27   23 27 2 0 0 1.000   2007 35 Freddie Bynum 35 5 2 0 0 4 1 0 0 16 2 1 0 0 0 1 .143 .189 .200 .389 1   0.1 0.5 0.6 .004 .022 .026 0.33 2007 35 Freddie Bynum
     
2008 11 10 Luke Scott BAL 5E L 30 DH   106 200 3 2 1 .990   2008 11 10 Luke Scott 361 98 20 2 21 57 49 45 10 75 4 0 2 2 2 4 .271 .357 .512 .869 67   8.6 1.4 10.0 .081 .013 .094 10.07 2008 11 10 Luke Scott
2008 27 Jay Payton BAL 5E R 35   71 132 2 0 1 1.000   2008 27 Jay Payton 168 43 6 2 4 16 28 8 0 27 0 2 0 2 0 1 .256 .290 .387 .677 19   1.7 1.3 3.0 .024 .018 .042 2.02 2008 27 Jay Payton
2008 28 Luis Montanez R BAL 5E R 26   26 30 1 2 0 .939   2008 28 Luis Montanez 77 23 3 0 3 11 12 2 0 12 0 0 0 0 0 0 .299 .316 .455 .771 11   1.9 0.2 2.1 .073 .008 .081 1.96 2008 28 Luis Montanez
     
2009 8 8 Nolan Reimold R BAL 5E R 25   88 172 7 5 1 .973   2009 8 8 Nolan Reimold 311 86 14 2 15 44 43 39 0 62 3 0 2 7 1 8 .277 .361 .479 .840 55   8.0 1.1 9.1 .091 .013 .103 9.40 2009 8 8 Nolan Reimold
2009 26 Felix Pie BAL 5E L 24 CF   44 85 3 1 0 .989   2009 26 Felix Pie 109 28 3 1 4 15 11 11 0 26 0 0 0 1 2 3 .257 .325 .413 .738 14   1.2 0.7 1.9 .027 .016 .043 1.27 2009 26 Felix Pie
2009 21 Luke Scott BAL 5E L 31 DH   26 53 0 0 0 1.000   2009 21 Luke Scott 87 23 3 0 4 7 11 10 0 26 0 0 0 0 0 0 .264 .340 .437 .777 14   2.0 0.3 2.3 .077 .012 .088 2.20 2009 21 Luke Scott
     
2010 20 12 Felix Pie BAL 5E L 25   70 147 7 1 3 .994   2010 20 12 Felix Pie 252 67 12 4 5 34 28 11 0 42 1 3 3 5 2 8 .266 .296 .405 .701 28   3.9 1.4 5.3 .056 .020 .076 4.55 2010 20 12 Felix Pie
2010 14 Corey Patterson BAL 5E L 30   56 116 4 5 1 .960   2010 14 Corey Patterson 219 59 13 0 4 29 15 12 0 53 1 5 0 17 2 3 .269 .310 .384 .694 28   4.5 0.9 5.4 .080 .016 .096 5.21 2010 14 Corey Patterson
2010 34 Nolan Reimold BAL 5E R 26   22 42 1 1 0 .977   2010 34 Nolan Reimold 73 16 2 0 1 6 5 6 0 15 0 0 0 0 0 4 .219 .278 .288 .566 5   - 0.4 0.4 .000 .018 .018 0.17 2010 34 Nolan Reimold
Copyright 2009-11 by Andre Lower
Sources:
All-Time Major League Handbook
Win Shares Digital Update
baseball-reference.com
ESPN Baseball Encyclopedia